sensor_id;sensor_type;location;lat;lon;timestamp;P1;durP1;ratioP1;P2;durP2;ratioP2
51148;SDS011;37210;50.058;8.688;2023-04-01T00:03:17;2.97;;;1.63;;
51148;SDS011;37210;50.058;8.688;2023-04-01T00:05:45;5.05;;;2.05;;
51148;SDS011;37210;50.058;8.688;2023-04-01T00:08:14;2.88;;;1.58;;
51148;SDS011;37210;50.058;8.688;2023-04-01T00:10:42;3.47;;;1.58;;
51148;SDS011;37210;50.058;8.688;2023-04-01T00:13:10;4.63;;;1.77;;
51148;SDS011;37210;50.058;8.688;2023-04-01T00:15:40;5.40;;;1.80;;
51148;SDS011;37210;50.058;8.688;2023-04-01T00:18:09;4.80;;;1.67;;
51148;SDS011;37210;50.058;8.688;2023-04-01T00:20:39;4.00;;;1.95;;
51148;SDS011;37210;50.058;8.688;2023-04-01T00:23:11;5.13;;;1.95;;
51148;SDS011;37210;50.058;8.688;2023-04-01T00:25:39;3.13;;;1.50;;
51148;SDS011;37210;50.058;8.688;2023-04-01T00:28:07;2.55;;;1.52;;
51148;SDS011;37210;50.058;8.688;2023-04-01T00:30:35;2.85;;;1.48;;
51148;SDS011;37210;50.058;8.688;2023-04-01T00:33:03;3.33;;;2.10;;
51148;SDS011;37210;50.058;8.688;2023-04-01T00:35:31;3.53;;;1.55;;
51148;SDS011;37210;50.058;8.688;2023-04-01T00:38:00;1.67;;;1.40;;
51148;SDS011;37210;50.058;8.688;2023-04-01T00:40:29;5.03;;;1.52;;
51148;SDS011;37210;50.058;8.688;2023-04-01T00:43:01;3.60;;;1.60;;
51148;SDS011;37210;50.058;8.688;2023-04-01T00:45:36;4.63;;;1.65;;
51148;SDS011;37210;50.058;8.688;2023-04-01T00:48:09;3.88;;;1.60;;
51148;SDS011;37210;50.058;8.688;2023-04-01T00:50:42;3.30;;;1.48;;
51148;SDS011;37210;50.058;8.688;2023-04-01T00:53:18;2.30;;;1.70;;
51148;SDS011;37210;50.058;8.688;2023-04-01T00:55:49;2.83;;;1.50;;
51148;SDS011;37210;50.058;8.688;2023-04-01T00:58:23;3.90;;;1.50;;
51148;SDS011;37210;50.058;8.688;2023-04-01T01:00:56;4.38;;;1.25;;
51148;SDS011;37210;50.058;8.688;2023-04-01T01:03:26;3.78;;;1.40;;
51148;SDS011;37210;50.058;8.688;2023-04-01T01:06:05;1.98;;;1.55;;
51148;SDS011;37210;50.058;8.688;2023-04-01T01:08:56;2.78;;;1.40;;
51148;SDS011;37210;50.058;8.688;2023-04-01T01:11:53;3.20;;;1.80;;
51148;SDS011;37210;50.058;8.688;2023-04-01T01:14:35;2.05;;;1.50;;
51148;SDS011;37210;50.058;8.688;2023-04-01T01:17:19;2.38;;;1.45;;
51148;SDS011;37210;50.058;8.688;2023-04-01T01:23:52;2.90;;;1.50;;
51148;SDS011;37210;50.058;8.688;2023-04-01T01:26:58;3.70;;;1.60;;
51148;SDS011;37210;50.058;8.688;2023-04-01T01:32:52;4.03;;;1.58;;
51148;SDS011;37210;50.058;8.688;2023-04-01T01:35:51;5.80;;;1.42;;
51148;SDS011;37210;50.058;8.688;2023-04-01T01:38:23;3.55;;;1.60;;
51148;SDS011;37210;50.058;8.688;2023-04-01T01:41:01;1.50;;;1.10;;
51148;SDS011;37210;50.058;8.688;2023-04-01T01:43:32;3.33;;;1.67;;
51148;SDS011;37210;50.058;8.688;2023-04-01T01:46:06;2.47;;;1.58;;
51148;SDS011;37210;50.058;8.688;2023-04-01T01:48:40;5.30;;;1.77;;
51148;SDS011;37210;50.058;8.688;2023-04-01T01:51:12;4.45;;;1.40;;
51148;SDS011;37210;50.058;8.688;2023-04-01T01:53:40;2.05;;;1.10;;
51148;SDS011;37210;50.058;8.688;2023-04-01T01:56:09;4.35;;;1.50;;
51148;SDS011;37210;50.058;8.688;2023-04-01T01:58:42;2.72;;;1.30;;
51148;SDS011;37210;50.058;8.688;2023-04-01T02:01:17;3.50;;;1.27;;
51148;SDS011;37210;50.058;8.688;2023-04-01T02:03:50;4.95;;;1.30;;
51148;SDS011;37210;50.058;8.688;2023-04-01T02:06:22;2.88;;;1.40;;
51148;SDS011;37210;50.058;8.688;2023-04-01T02:08:53;4.80;;;1.50;;
51148;SDS011;37210;50.058;8.688;2023-04-01T02:11:26;2.55;;;1.40;;
51148;SDS011;37210;50.058;8.688;2023-04-01T02:14:00;2.72;;;1.23;;
51148;SDS011;37210;50.058;8.688;2023-04-01T02:16:34;2.35;;;1.23;;
51148;SDS011;37210;50.058;8.688;2023-04-01T02:19:07;2.42;;;1.40;;
51148;SDS011;37210;50.058;8.688;2023-04-01T02:21:41;3.75;;;1.20;;
51148;SDS011;37210;50.058;8.688;2023-04-01T02:24:12;3.28;;;1.50;;
51148;SDS011;37210;50.058;8.688;2023-04-01T02:26:41;1.85;;;1.05;;
51148;SDS011;37210;50.058;8.688;2023-04-01T02:29:12;2.65;;;1.45;;
51148;SDS011;37210;50.058;8.688;2023-04-01T02:31:41;3.67;;;1.30;;
51148;SDS011;37210;50.058;8.688;2023-04-01T02:34:09;3.17;;;1.38;;
51148;SDS011;37210;50.058;8.688;2023-04-01T02:36:39;4.35;;;1.40;;
51148;SDS011;37210;50.058;8.688;2023-04-01T02:39:08;2.92;;;1.40;;
51148;SDS011;37210;50.058;8.688;2023-04-01T02:41:39;3.03;;;1.70;;
51148;SDS011;37210;50.058;8.688;2023-04-01T02:44:09;3.28;;;1.40;;
51148;SDS011;37210;50.058;8.688;2023-04-01T02:46:37;3.17;;;1.38;;
51148;SDS011;37210;50.058;8.688;2023-04-01T02:49:05;4.00;;;1.30;;
51148;SDS011;37210;50.058;8.688;2023-04-01T02:51:34;3.25;;;1.20;;
51148;SDS011;37210;50.058;8.688;2023-04-01T02:54:01;3.92;;;1.30;;
51148;SDS011;37210;50.058;8.688;2023-04-01T02:56:31;2.22;;;1.40;;
51148;SDS011;37210;50.058;8.688;2023-04-01T02:58:58;3.20;;;1.48;;
51148;SDS011;37210;50.058;8.688;2023-04-01T03:01:26;2.70;;;1.27;;
51148;SDS011;37210;50.058;8.688;2023-04-01T03:03:54;4.03;;;1.25;;
51148;SDS011;37210;50.058;8.688;2023-04-01T03:06:21;1.80;;;1.30;;
51148;SDS011;37210;50.058;8.688;2023-04-01T03:08:49;1.83;;;1.15;;
51148;SDS011;37210;50.058;8.688;2023-04-01T03:11:17;1.98;;;1.10;;
51148;SDS011;37210;50.058;8.688;2023-04-01T03:13:47;2.67;;;1.10;;
51148;SDS011;37210;50.058;8.688;2023-04-01T03:16:15;2.38;;;1.10;;
51148;SDS011;37210;50.058;8.688;2023-04-01T03:18:43;2.35;;;1.00;;
51148;SDS011;37210;50.058;8.688;2023-04-01T03:21:14;2.85;;;1.48;;
51148;SDS011;37210;50.058;8.688;2023-04-01T03:23:44;1.75;;;1.20;;
51148;SDS011;37210;50.058;8.688;2023-04-01T03:26:12;2.28;;;1.10;;
51148;SDS011;37210;50.058;8.688;2023-04-01T03:28:40;3.30;;;1.48;;
51148;SDS011;37210;50.058;8.688;2023-04-01T03:31:09;2.03;;;1.17;;
51148;SDS011;37210;50.058;8.688;2023-04-01T03:33:43;4.33;;;1.33;;
51148;SDS011;37210;50.058;8.688;2023-04-01T03:36:11;3.40;;;1.38;;
51148;SDS011;37210;50.058;8.688;2023-04-01T03:38:39;1.33;;;1.10;;
51148;SDS011;37210;50.058;8.688;2023-04-01T03:41:13;4.80;;;1.50;;
51148;SDS011;37210;50.058;8.688;2023-04-01T03:43:43;1.80;;;1.40;;
51148;SDS011;37210;50.058;8.688;2023-04-01T03:46:16;2.33;;;1.33;;
51148;SDS011;37210;50.058;8.688;2023-04-01T03:48:44;2.20;;;1.15;;
51148;SDS011;37210;50.058;8.688;2023-04-01T03:51:12;1.80;;;1.17;;
51148;SDS011;37210;50.058;8.688;2023-04-01T03:53:40;2.65;;;1.08;;
51148;SDS011;37210;50.058;8.688;2023-04-01T03:56:08;2.47;;;1.52;;
51148;SDS011;37210;50.058;8.688;2023-04-01T03:58:37;2.08;;;1.20;;
51148;SDS011;37210;50.058;8.688;2023-04-01T04:01:15;3.85;;;1.63;;
51148;SDS011;37210;50.058;8.688;2023-04-01T04:03:47;3.88;;;1.27;;
51148;SDS011;37210;50.058;8.688;2023-04-01T04:06:16;2.88;;;1.45;;
51148;SDS011;37210;50.058;8.688;2023-04-01T04:08:46;2.42;;;1.33;;
51148;SDS011;37210;50.058;8.688;2023-04-01T04:11:14;1.55;;;1.00;;
51148;SDS011;37210;50.058;8.688;2023-04-01T04:13:45;5.40;;;1.40;;
51148;SDS011;37210;50.058;8.688;2023-04-01T04:16:16;2.95;;;1.23;;
51148;SDS011;37210;50.058;8.688;2023-04-01T04:18:52;1.45;;;1.15;;
51148;SDS011;37210;50.058;8.688;2023-04-01T04:21:19;4.13;;;1.30;;
51148;SDS011;37210;50.058;8.688;2023-04-01T04:23:47;2.38;;;1.20;;
51148;SDS011;37210;50.058;8.688;2023-04-01T04:26:18;2.10;;;1.20;;
51148;SDS011;37210;50.058;8.688;2023-04-01T04:28:56;3.22;;;1.35;;
51148;SDS011;37210;50.058;8.688;2023-04-01T04:31:26;2.42;;;1.10;;
51148;SDS011;37210;50.058;8.688;2023-04-01T04:33:58;2.00;;;1.20;;
51148;SDS011;37210;50.058;8.688;2023-04-01T04:36:27;3.08;;;1.25;;
51148;SDS011;37210;50.058;8.688;2023-04-01T04:38:55;2.65;;;1.40;;
51148;SDS011;37210;50.058;8.688;2023-04-01T04:41:24;3.33;;;1.45;;
51148;SDS011;37210;50.058;8.688;2023-04-01T04:43:53;3.58;;;1.35;;
51148;SDS011;37210;50.058;8.688;2023-04-01T04:46:24;2.75;;;1.10;;
51148;SDS011;37210;50.058;8.688;2023-04-01T04:49:01;1.52;;;1.10;;
51148;SDS011;37210;50.058;8.688;2023-04-01T04:51:29;2.65;;;1.38;;
51148;SDS011;37210;50.058;8.688;2023-04-01T04:53:59;2.25;;;1.40;;
51148;SDS011;37210;50.058;8.688;2023-04-01T04:56:40;2.65;;;1.45;;
51148;SDS011;37210;50.058;8.688;2023-04-01T04:59:10;3.10;;;1.40;;
51148;SDS011;37210;50.058;8.688;2023-04-01T05:01:49;4.43;;;1.42;;
51148;SDS011;37210;50.058;8.688;2023-04-01T05:04:17;4.78;;;1.75;;
51148;SDS011;37210;50.058;8.688;2023-04-01T05:06:44;2.60;;;1.30;;
51148;SDS011;37210;50.058;8.688;2023-04-01T05:09:12;1.90;;;1.05;;
51148;SDS011;37210;50.058;8.688;2023-04-01T05:11:42;2.38;;;1.30;;
51148;SDS011;37210;50.058;8.688;2023-04-01T05:14:13;3.83;;;1.17;;
51148;SDS011;37210;50.058;8.688;2023-04-01T05:16:56;3.22;;;1.55;;
51148;SDS011;37210;50.058;8.688;2023-04-01T05:19:24;3.47;;;1.20;;
51148;SDS011;37210;50.058;8.688;2023-04-01T05:21:52;2.70;;;1.67;;
51148;SDS011;37210;50.058;8.688;2023-04-01T05:24:20;3.20;;;1.30;;
51148;SDS011;37210;50.058;8.688;2023-04-01T05:26:48;2.40;;;1.20;;
51148;SDS011;37210;50.058;8.688;2023-04-01T05:29:15;3.25;;;1.27;;
51148;SDS011;37210;50.058;8.688;2023-04-01T05:31:46;2.33;;;1.02;;
51148;SDS011;37210;50.058;8.688;2023-04-01T05:34:16;3.22;;;1.00;;
51148;SDS011;37210;50.058;8.688;2023-04-01T05:36:44;3.28;;;1.33;;
51148;SDS011;37210;50.058;8.688;2023-04-01T05:39:12;4.53;;;1.38;;
51148;SDS011;37210;50.058;8.688;2023-04-01T05:41:43;1.70;;;1.15;;
51148;SDS011;37210;50.058;8.688;2023-04-01T05:44:11;1.77;;;1.15;;
51148;SDS011;37210;50.058;8.688;2023-04-01T05:46:39;3.47;;;1.45;;
51148;SDS011;37210;50.058;8.688;2023-04-01T05:49:24;2.53;;;1.00;;
51148;SDS011;37210;50.058;8.688;2023-04-01T05:51:52;2.50;;;1.50;;
51148;SDS011;37210;50.058;8.688;2023-04-01T05:54:21;2.17;;;1.10;;
51148;SDS011;37210;50.058;8.688;2023-04-01T05:56:49;2.28;;;0.90;;
51148;SDS011;37210;50.058;8.688;2023-04-01T05:59:19;2.70;;;1.27;;
51148;SDS011;37210;50.058;8.688;2023-04-01T06:01:47;2.15;;;1.00;;
51148;SDS011;37210;50.058;8.688;2023-04-01T06:04:15;2.20;;;0.88;;
51148;SDS011;37210;50.058;8.688;2023-04-01T06:06:49;3.33;;;1.48;;
51148;SDS011;37210;50.058;8.688;2023-04-01T06:09:19;2.13;;;1.00;;
51148;SDS011;37210;50.058;8.688;2023-04-01T06:12:00;1.73;;;1.13;;
51148;SDS011;37210;50.058;8.688;2023-04-01T06:15:02;1.17;;;0.90;;
51148;SDS011;37210;50.058;8.688;2023-04-01T06:17:50;2.15;;;1.20;;
51148;SDS011;37210;50.058;8.688;2023-04-01T06:20:58;1.83;;;1.00;;
51148;SDS011;37210;50.058;8.688;2023-04-01T06:23:49;1.55;;;1.08;;
51148;SDS011;37210;50.058;8.688;2023-04-01T06:26:33;1.60;;;1.20;;
51148;SDS011;37210;50.058;8.688;2023-04-01T06:32:22;1.88;;;1.10;;
51148;SDS011;37210;50.058;8.688;2023-04-01T06:41:20;2.88;;;1.08;;
51148;SDS011;37210;50.058;8.688;2023-04-01T06:44:07;1.30;;;0.90;;
51148;SDS011;37210;50.058;8.688;2023-04-01T06:47:18;2.83;;;0.90;;
51148;SDS011;37210;50.058;8.688;2023-04-01T06:50:24;1.85;;;1.00;;
51148;SDS011;37210;50.058;8.688;2023-04-01T06:53:28;1.27;;;0.73;;
51148;SDS011;37210;50.058;8.688;2023-04-01T06:56:49;2.17;;;1.00;;
51148;SDS011;37210;50.058;8.688;2023-04-01T06:59:25;1.30;;;0.90;;
51148;SDS011;37210;50.058;8.688;2023-04-01T07:01:57;3.10;;;1.00;;
51148;SDS011;37210;50.058;8.688;2023-04-01T07:04:32;3.90;;;0.90;;
51148;SDS011;37210;50.058;8.688;2023-04-01T07:07:08;2.10;;;1.00;;
51148;SDS011;37210;50.058;8.688;2023-04-01T07:09:54;2.47;;;0.70;;
51148;SDS011;37210;50.058;8.688;2023-04-01T07:12:33;1.45;;;1.00;;
51148;SDS011;37210;50.058;8.688;2023-04-01T07:15:36;1.52;;;1.17;;
51148;SDS011;37210;50.058;8.688;2023-04-01T07:18:11;2.10;;;0.88;;
51148;SDS011;37210;50.058;8.688;2023-04-01T07:20:44;1.10;;;0.90;;
51148;SDS011;37210;50.058;8.688;2023-04-01T07:23:16;1.42;;;1.00;;
51148;SDS011;37210;50.058;8.688;2023-04-01T07:26:00;2.78;;;1.60;;
51148;SDS011;37210;50.058;8.688;2023-04-01T07:29:01;2.92;;;1.15;;
51148;SDS011;37210;50.058;8.688;2023-04-01T07:34:43;1.73;;;0.85;;
51148;SDS011;37210;50.058;8.688;2023-04-01T07:37:30;2.42;;;1.38;;
51148;SDS011;37210;50.058;8.688;2023-04-01T07:40:13;1.45;;;0.80;;
51148;SDS011;37210;50.058;8.688;2023-04-01T07:42:57;1.02;;;0.70;;
51148;SDS011;37210;50.058;8.688;2023-04-01T07:46:25;0.85;;;0.65;;
51148;SDS011;37210;50.058;8.688;2023-04-01T07:49:15;3.42;;;0.82;;
51148;SDS011;37210;50.058;8.688;2023-04-01T07:51:55;4.57;;;3.42;;
51148;SDS011;37210;50.058;8.688;2023-04-01T07:54:36;3.80;;;2.53;;
51148;SDS011;37210;50.058;8.688;2023-04-01T07:57:15;3.85;;;3.55;;
51148;SDS011;37210;50.058;8.688;2023-04-01T07:59:55;3.13;;;2.03;;
51148;SDS011;37210;50.058;8.688;2023-04-01T08:02:48;4.90;;;3.70;;
51148;SDS011;37210;50.058;8.688;2023-04-01T08:05:40;7.20;;;5.70;;
51148;SDS011;37210;50.058;8.688;2023-04-01T08:08:23;4.28;;;2.25;;
51148;SDS011;37210;50.058;8.688;2023-04-01T08:11:34;4.03;;;2.20;;
51148;SDS011;37210;50.058;8.688;2023-04-01T08:14:44;7.97;;;6.70;;
51148;SDS011;37210;50.058;8.688;2023-04-01T08:17:36;6.70;;;5.95;;
51148;SDS011;37210;50.058;8.688;2023-04-01T08:20:21;2.78;;;2.17;;
51148;SDS011;37210;50.058;8.688;2023-04-01T08:22:58;5.93;;;3.65;;
51148;SDS011;37210;50.058;8.688;2023-04-01T08:25:38;1.27;;;1.00;;
51148;SDS011;37210;50.058;8.688;2023-04-01T08:28:16;2.28;;;0.80;;
51148;SDS011;37210;50.058;8.688;2023-04-01T08:30:52;1.60;;;1.30;;
51148;SDS011;37210;50.058;8.688;2023-04-01T08:33:28;2.00;;;0.80;;
51148;SDS011;37210;50.058;8.688;2023-04-01T08:38:38;1.92;;;0.77;;
51148;SDS011;37210;50.058;8.688;2023-04-01T08:41:20;1.85;;;1.00;;
51148;SDS011;37210;50.058;8.688;2023-04-01T08:54:46;0.88;;;0.50;;
51148;SDS011;37210;50.058;8.688;2023-04-01T08:58:20;1.05;;;0.65;;
51148;SDS011;37210;50.058;8.688;2023-04-01T09:01:26;1.35;;;0.75;;
51148;SDS011;37210;50.058;8.688;2023-04-01T09:05:04;1.38;;;0.85;;
51148;SDS011;37210;50.058;8.688;2023-04-01T09:08:10;1.45;;;1.00;;
51148;SDS011;37210;50.058;8.688;2023-04-01T09:11:06;2.13;;;0.95;;
51148;SDS011;37210;50.058;8.688;2023-04-01T09:14:21;0.88;;;0.60;;
51148;SDS011;37210;50.058;8.688;2023-04-01T09:17:38;2.35;;;0.73;;
51148;SDS011;37210;50.058;8.688;2023-04-01T09:20:34;1.20;;;0.80;;
51148;SDS011;37210;50.058;8.688;2023-04-01T09:23:35;2.45;;;1.02;;
51148;SDS011;37210;50.058;8.688;2023-04-01T09:26:37;1.20;;;0.90;;
51148;SDS011;37210;50.058;8.688;2023-04-01T09:33:01;1.33;;;0.70;;
51148;SDS011;37210;50.058;8.688;2023-04-01T09:36:12;1.00;;;0.70;;
51148;SDS011;37210;50.058;8.688;2023-04-01T09:39:09;2.20;;;0.90;;
51148;SDS011;37210;50.058;8.688;2023-04-01T09:42:06;0.52;;;0.52;;
51148;SDS011;37210;50.058;8.688;2023-04-01T09:45:04;1.10;;;0.60;;
51148;SDS011;37210;50.058;8.688;2023-04-01T09:47:49;0.52;;;0.40;;
51148;SDS011;37210;50.058;8.688;2023-04-01T09:50:32;0.52;;;0.50;;
51148;SDS011;37210;50.058;8.688;2023-04-01T09:53:20;1.23;;;0.75;;
51148;SDS011;37210;50.058;8.688;2023-04-01T09:59:47;0.77;;;0.70;;
51148;SDS011;37210;50.058;8.688;2023-04-01T10:03:01;1.40;;;0.47;;
51148;SDS011;37210;50.058;8.688;2023-04-01T10:09:26;0.60;;;0.52;;
51148;SDS011;37210;50.058;8.688;2023-04-01T10:12:43;0.55;;;0.55;;
51148;SDS011;37210;50.058;8.688;2023-04-01T10:16:03;0.38;;;0.38;;
51148;SDS011;37210;50.058;8.688;2023-04-01T10:22:50;0.50;;;0.50;;
51148;SDS011;37210;50.058;8.688;2023-04-01T10:25:52;0.82;;;0.40;;
51148;SDS011;37210;50.058;8.688;2023-04-01T10:29:25;0.50;;;0.35;;
51148;SDS011;37210;50.058;8.688;2023-04-01T10:32:42;0.43;;;0.43;;
51148;SDS011;37210;50.058;8.688;2023-04-01T10:35:51;0.55;;;0.50;;
51148;SDS011;37210;50.058;8.688;2023-04-01T10:39:03;0.40;;;0.40;;
51148;SDS011;37210;50.058;8.688;2023-04-01T10:45:50;1.30;;;0.50;;
51148;SDS011;37210;50.058;8.688;2023-04-01T11:06:38;0.70;;;0.60;;
51148;SDS011;37210;50.058;8.688;2023-04-01T11:13:42;0.40;;;0.40;;
51148;SDS011;37210;50.058;8.688;2023-04-01T11:16:59;0.30;;;0.30;;
51148;SDS011;37210;50.058;8.688;2023-04-01T11:20:18;1.15;;;0.32;;
51148;SDS011;37210;50.058;8.688;2023-04-01T11:23:28;0.52;;;0.50;;
51148;SDS011;37210;50.058;8.688;2023-04-01T11:26:32;0.50;;;0.50;;
51148;SDS011;37210;50.058;8.688;2023-04-01T11:29:36;0.85;;;0.40;;
51148;SDS011;37210;50.058;8.688;2023-04-01T11:32:34;0.57;;;0.38;;
51148;SDS011;37210;50.058;8.688;2023-04-01T11:35:25;0.40;;;0.40;;
51148;SDS011;37210;50.058;8.688;2023-04-01T11:38:32;0.77;;;0.60;;
51148;SDS011;37210;50.058;8.688;2023-04-01T11:41:49;0.38;;;0.38;;
51148;SDS011;37210;50.058;8.688;2023-04-01T11:44:50;0.60;;;0.40;;
51148;SDS011;37210;50.058;8.688;2023-04-01T11:47:44;0.35;;;0.30;;
51148;SDS011;37210;50.058;8.688;2023-04-01T11:50:40;0.50;;;0.30;;
51148;SDS011;37210;50.058;8.688;2023-04-01T11:53:29;0.40;;;0.40;;
51148;SDS011;37210;50.058;8.688;2023-04-01T11:56:13;0.38;;;0.38;;
51148;SDS011;37210;50.058;8.688;2023-04-01T11:59:04;0.30;;;0.30;;
51148;SDS011;37210;50.058;8.688;2023-04-01T12:02:10;0.20;;;0.20;;
51148;SDS011;37210;50.058;8.688;2023-04-01T12:05:03;0.45;;;0.30;;
51148;SDS011;37210;50.058;8.688;2023-04-01T12:11:21;0.60;;;0.60;;
51148;SDS011;37210;50.058;8.688;2023-04-01T12:14:03;0.60;;;0.60;;
51148;SDS011;37210;50.058;8.688;2023-04-01T12:16:42;0.30;;;0.30;;
51148;SDS011;37210;50.058;8.688;2023-04-01T12:19:26;1.10;;;0.57;;
51148;SDS011;37210;50.058;8.688;2023-04-01T12:22:12;0.45;;;0.40;;
51148;SDS011;37210;50.058;8.688;2023-04-01T12:24:58;0.20;;;0.20;;
51148;SDS011;37210;50.058;8.688;2023-04-01T12:27:45;0.32;;;0.32;;
51148;SDS011;37210;50.058;8.688;2023-04-01T12:30:42;0.50;;;0.50;;
51148;SDS011;37210;50.058;8.688;2023-04-01T12:36:46;0.30;;;0.30;;
51148;SDS011;37210;50.058;8.688;2023-04-01T12:39:37;0.30;;;0.30;;
51148;SDS011;37210;50.058;8.688;2023-04-01T12:42:43;0.63;;;0.50;;
51148;SDS011;37210;50.058;8.688;2023-04-01T12:45:40;1.38;;;0.40;;
51148;SDS011;37210;50.058;8.688;2023-04-01T12:48:27;0.40;;;0.40;;
51148;SDS011;37210;50.058;8.688;2023-04-01T12:51:57;0.43;;;0.40;;
51148;SDS011;37210;50.058;8.688;2023-04-01T12:54:45;0.73;;;0.38;;
51148;SDS011;37210;50.058;8.688;2023-04-01T13:04:51;8.55;;;7.63;;
51148;SDS011;37210;50.058;8.688;2023-04-01T13:08:06;12.93;;;11.68;;
51148;SDS011;37210;50.058;8.688;2023-04-01T13:10:53;18.85;;;16.58;;
51148;SDS011;37210;50.058;8.688;2023-04-01T13:13:49;4.68;;;4.25;;
51148;SDS011;37210;50.058;8.688;2023-04-01T13:16:54;11.07;;;9.52;;
51148;SDS011;37210;50.058;8.688;2023-04-01T13:19:36;4.10;;;3.38;;
51148;SDS011;37210;50.058;8.688;2023-04-01T13:22:15;12.27;;;10.98;;
51148;SDS011;37210;50.058;8.688;2023-04-01T13:24:52;2.75;;;2.55;;
51148;SDS011;37210;50.058;8.688;2023-04-01T13:27:33;2.45;;;2.13;;
51148;SDS011;37210;50.058;8.688;2023-04-01T13:30:22;6.90;;;5.63;;
51148;SDS011;37210;50.058;8.688;2023-04-01T13:33:00;1.60;;;1.50;;
51148;SDS011;37210;50.058;8.688;2023-04-01T13:35:42;0.98;;;0.88;;
51148;SDS011;37210;50.058;8.688;2023-04-01T13:41:18;2.03;;;1.20;;
51148;SDS011;37210;50.058;8.688;2023-04-01T13:44:00;0.70;;;0.55;;
51148;SDS011;37210;50.058;8.688;2023-04-01T13:46:42;0.55;;;0.52;;
51148;SDS011;37210;50.058;8.688;2023-04-01T13:56:16;1.63;;;1.38;;
51148;SDS011;37210;50.058;8.688;2023-04-01T13:58:58;0.65;;;0.65;;
51148;SDS011;37210;50.058;8.688;2023-04-01T14:01:54;1.30;;;1.20;;
51148;SDS011;37210;50.058;8.688;2023-04-01T14:04:44;1.20;;;1.10;;
51148;SDS011;37210;50.058;8.688;2023-04-01T14:07:38;0.50;;;0.50;;
51148;SDS011;37210;50.058;8.688;2023-04-01T14:10:25;1.58;;;0.90;;
51148;SDS011;37210;50.058;8.688;2023-04-01T14:13:04;1.42;;;1.33;;
51148;SDS011;37210;50.058;8.688;2023-04-01T14:15:48;1.77;;;1.63;;
51148;SDS011;37210;50.058;8.688;2023-04-01T14:21:53;2.65;;;0.80;;
51148;SDS011;37210;50.058;8.688;2023-04-01T14:24:41;2.97;;;1.20;;
51148;SDS011;37210;50.058;8.688;2023-04-01T14:27:34;1.20;;;1.10;;
51148;SDS011;37210;50.058;8.688;2023-04-01T14:33:32;2.47;;;0.80;;
51148;SDS011;37210;50.058;8.688;2023-04-01T14:39:56;2.17;;;0.90;;
51148;SDS011;37210;50.058;8.688;2023-04-01T14:42:53;0.75;;;0.60;;
51148;SDS011;37210;50.058;8.688;2023-04-01T14:45:40;1.40;;;1.30;;
51148;SDS011;37210;50.058;8.688;2023-04-01T14:48:28;1.20;;;0.90;;
51148;SDS011;37210;50.058;8.688;2023-04-01T14:51:03;1.13;;;0.63;;
51148;SDS011;37210;50.058;8.688;2023-04-01T14:53:43;1.95;;;0.95;;
51148;SDS011;37210;50.058;8.688;2023-04-01T14:56:36;2.10;;;0.80;;
51148;SDS011;37210;50.058;8.688;2023-04-01T14:59:13;1.70;;;1.08;;
51148;SDS011;37210;50.058;8.688;2023-04-01T15:01:55;0.98;;;0.80;;
51148;SDS011;37210;50.058;8.688;2023-04-01T15:04:44;0.70;;;0.70;;
51148;SDS011;37210;50.058;8.688;2023-04-01T15:07:26;1.42;;;1.08;;
51148;SDS011;37210;50.058;8.688;2023-04-01T15:13:56;1.63;;;0.68;;
51148;SDS011;37210;50.058;8.688;2023-04-01T15:17:00;0.43;;;0.43;;
51148;SDS011;37210;50.058;8.688;2023-04-01T15:19:48;0.80;;;0.43;;
51148;SDS011;37210;50.058;8.688;2023-04-01T15:22:42;1.50;;;0.52;;
51148;SDS011;37210;50.058;8.688;2023-04-01T15:25:33;1.00;;;0.70;;
51148;SDS011;37210;50.058;8.688;2023-04-01T15:28:22;0.80;;;0.60;;
51148;SDS011;37210;50.058;8.688;2023-04-01T15:30:57;0.60;;;0.50;;
51148;SDS011;37210;50.058;8.688;2023-04-01T15:36:50;1.27;;;0.57;;
51148;SDS011;37210;50.058;8.688;2023-04-01T15:39:36;3.67;;;3.35;;
51148;SDS011;37210;50.058;8.688;2023-04-01T15:42:21;4.85;;;4.22;;
51148;SDS011;37210;50.058;8.688;2023-04-01T15:45:08;2.00;;;1.10;;
51148;SDS011;37210;50.058;8.688;2023-04-01T15:47:58;2.83;;;1.80;;
51148;SDS011;37210;50.058;8.688;2023-04-01T15:50:53;3.47;;;2.50;;
51148;SDS011;37210;50.058;8.688;2023-04-01T15:56:38;1.08;;;0.98;;
51148;SDS011;37210;50.058;8.688;2023-04-01T15:59:28;1.67;;;1.20;;
51148;SDS011;37210;50.058;8.688;2023-04-01T16:02:22;1.15;;;0.85;;
51148;SDS011;37210;50.058;8.688;2023-04-01T16:05:03;0.55;;;0.52;;
51148;SDS011;37210;50.058;8.688;2023-04-01T16:07:54;1.23;;;0.70;;
51148;SDS011;37210;50.058;8.688;2023-04-01T16:10:44;0.80;;;0.60;;
51148;SDS011;37210;50.058;8.688;2023-04-01T16:13:35;1.80;;;0.68;;
51148;SDS011;37210;50.058;8.688;2023-04-01T16:16:24;0.68;;;0.60;;
51148;SDS011;37210;50.058;8.688;2023-04-01T16:19:16;0.60;;;0.60;;
51148;SDS011;37210;50.058;8.688;2023-04-01T16:22:14;0.98;;;0.73;;
51148;SDS011;37210;50.058;8.688;2023-04-01T16:24:51;0.70;;;0.70;;
51148;SDS011;37210;50.058;8.688;2023-04-01T16:27:29;1.00;;;0.70;;
51148;SDS011;37210;50.058;8.688;2023-04-01T16:30:17;0.73;;;0.52;;
51148;SDS011;37210;50.058;8.688;2023-04-01T16:33:02;0.93;;;0.73;;
51148;SDS011;37210;50.058;8.688;2023-04-01T16:35:42;2.08;;;1.10;;
51148;SDS011;37210;50.058;8.688;2023-04-01T16:38:18;1.70;;;0.93;;
51148;SDS011;37210;50.058;8.688;2023-04-01T16:40:57;2.15;;;1.00;;
51148;SDS011;37210;50.058;8.688;2023-04-01T16:43:39;2.35;;;1.42;;
51148;SDS011;37210;50.058;8.688;2023-04-01T16:49:08;1.48;;;1.23;;
51148;SDS011;37210;50.058;8.688;2023-04-01T16:52:12;1.10;;;1.00;;
51148;SDS011;37210;50.058;8.688;2023-04-01T16:54:44;1.73;;;0.93;;
51148;SDS011;37210;50.058;8.688;2023-04-01T16:57:23;1.85;;;1.02;;
51148;SDS011;37210;50.058;8.688;2023-04-01T16:59:59;2.40;;;0.90;;
51148;SDS011;37210;50.058;8.688;2023-04-01T17:02:43;1.48;;;0.85;;
51148;SDS011;37210;50.058;8.688;2023-04-01T17:05:33;1.85;;;0.88;;
51148;SDS011;37210;50.058;8.688;2023-04-01T17:08:14;1.48;;;0.88;;
51148;SDS011;37210;50.058;8.688;2023-04-01T17:10:56;1.77;;;0.77;;
51148;SDS011;37210;50.058;8.688;2023-04-01T17:13:34;1.30;;;0.90;;
51148;SDS011;37210;50.058;8.688;2023-04-01T17:16:18;1.20;;;0.90;;
51148;SDS011;37210;50.058;8.688;2023-04-01T17:19:14;0.98;;;0.98;;
51148;SDS011;37210;50.058;8.688;2023-04-01T17:22:01;1.70;;;1.10;;
51148;SDS011;37210;50.058;8.688;2023-04-01T17:24:48;1.30;;;1.00;;
51148;SDS011;37210;50.058;8.688;2023-04-01T17:27:34;1.00;;;0.90;;
51148;SDS011;37210;50.058;8.688;2023-04-01T17:30:17;1.70;;;1.10;;
51148;SDS011;37210;50.058;8.688;2023-04-01T17:36:16;0.98;;;0.60;;
51148;SDS011;37210;50.058;8.688;2023-04-01T17:39:01;0.93;;;0.93;;
51148;SDS011;37210;50.058;8.688;2023-04-01T17:41:48;1.00;;;0.70;;
51148;SDS011;37210;50.058;8.688;2023-04-01T17:44:31;1.25;;;0.93;;
51148;SDS011;37210;50.058;8.688;2023-04-01T17:47:19;1.50;;;1.10;;
51148;SDS011;37210;50.058;8.688;2023-04-01T17:50:09;1.70;;;0.90;;
51148;SDS011;37210;50.058;8.688;2023-04-01T17:52:51;1.38;;;0.73;;
51148;SDS011;37210;50.058;8.688;2023-04-01T17:55:43;1.17;;;0.70;;
51148;SDS011;37210;50.058;8.688;2023-04-01T17:58:29;1.92;;;1.00;;
51148;SDS011;37210;50.058;8.688;2023-04-01T18:01:16;1.13;;;1.02;;
51148;SDS011;37210;50.058;8.688;2023-04-01T18:04:07;1.00;;;0.90;;
51148;SDS011;37210;50.058;8.688;2023-04-01T18:06:53;1.25;;;0.90;;
51148;SDS011;37210;50.058;8.688;2023-04-01T18:10:09;1.10;;;0.80;;
51148;SDS011;37210;50.058;8.688;2023-04-01T18:16:37;2.55;;;1.20;;
51148;SDS011;37210;50.058;8.688;2023-04-01T18:19:24;1.73;;;0.77;;
51148;SDS011;37210;50.058;8.688;2023-04-01T18:22:09;0.82;;;0.75;;
51148;SDS011;37210;50.058;8.688;2023-04-01T18:24:48;1.02;;;0.95;;
51148;SDS011;37210;50.058;8.688;2023-04-01T18:27:29;0.88;;;0.85;;
51148;SDS011;37210;50.058;8.688;2023-04-01T18:30:07;1.03;;;0.90;;
51148;SDS011;37210;50.058;8.688;2023-04-01T18:32:43;1.30;;;1.20;;